sensor_id;sensor_type;location;lat;lon;timestamp;temperature;humidity
11647;DHT22;5880;52.342;9.662;2023-06-04T00:00:48;14.90;32.70
11647;DHT22;5880;52.342;9.662;2023-06-04T00:03:14;14.90;32.80
11647;DHT22;5880;52.342;9.662;2023-06-04T00:05:39;14.80;32.90
11647;DHT22;5880;52.342;9.662;2023-06-04T00:08:05;14.80;33.00
11647;DHT22;5880;52.342;9.662;2023-06-04T00:10:31;14.70;33.10
11647;DHT22;5880;52.342;9.662;2023-06-04T00:12:59;14.70;33.20
11647;DHT22;5880;52.342;9.662;2023-06-04T00:15:25;14.70;33.30
11647;DHT22;5880;52.342;9.662;2023-06-04T00:17:51;14.60;33.30
11647;DHT22;5880;52.342;9.662;2023-06-04T00:20:17;14.60;33.40
11647;DHT22;5880;52.342;9.662;2023-06-04T00:22:43;14.50;33.50
11647;DHT22;5880;52.342;9.662;2023-06-04T00:25:10;14.50;33.60
11647;DHT22;5880;52.342;9.662;2023-06-04T00:27:36;14.50;33.80
11647;DHT22;5880;52.342;9.662;2023-06-04T00:30:03;14.50;33.80
11647;DHT22;5880;52.342;9.662;2023-06-04T00:32:29;14.40;33.80
11647;DHT22;5880;52.342;9.662;2023-06-04T00:34:56;14.40;33.90
11647;DHT22;5880;52.342;9.662;2023-06-04T00:37:27;14.30;34.00
11647;DHT22;5880;52.342;9.662;2023-06-04T00:39:53;14.30;33.90
11647;DHT22;5880;52.342;9.662;2023-06-04T00:42:19;14.20;33.70
11647;DHT22;5880;52.342;9.662;2023-06-04T00:44:45;14.20;33.90
11647;DHT22;5880;52.342;9.662;2023-06-04T00:47:19;14.20;34.10
11647;DHT22;5880;52.342;9.662;2023-06-04T00:49:46;14.10;34.90
11647;DHT22;5880;52.342;9.662;2023-06-04T00:52:14;14.10;34.20
11647;DHT22;5880;52.342;9.662;2023-06-04T00:54:41;14.10;34.50
11647;DHT22;5880;52.342;9.662;2023-06-04T00:57:07;14.00;34.20
11647;DHT22;5880;52.342;9.662;2023-06-04T00:59:35;14.00;34.30
11647;DHT22;5880;52.342;9.662;2023-06-04T01:02:11;14.00;34.60
11647;DHT22;5880;52.342;9.662;2023-06-04T01:04:58;13.90;35.40
11647;DHT22;5880;52.342;9.662;2023-06-04T01:07:33;13.90;35.40
11647;DHT22;5880;52.342;9.662;2023-06-04T01:10:02;13.80;34.70
11647;DHT22;5880;52.342;9.662;2023-06-04T01:12:28;13.80;34.80
11647;DHT22;5880;52.342;9.662;2023-06-04T01:14:57;13.80;35.00
11647;DHT22;5880;52.342;9.662;2023-06-04T01:17:31;13.70;35.10
11647;DHT22;5880;52.342;9.662;2023-06-04T01:20:38;13.70;36.00
11647;DHT22;5880;52.342;9.662;2023-06-04T01:25:54;13.60;36.30
11647;DHT22;5880;52.342;9.662;2023-06-04T01:28:22;13.60;35.20
11647;DHT22;5880;52.342;9.662;2023-06-04T01:30:48;13.60;35.30
11647;DHT22;5880;52.342;9.662;2023-06-04T01:33:18;13.60;35.30
11647;DHT22;5880;52.342;9.662;2023-06-04T01:35:45;13.60;35.60
11647;DHT22;5880;52.342;9.662;2023-06-04T01:38:11;13.50;35.60
11647;DHT22;5880;52.342;9.662;2023-06-04T01:40:37;13.50;35.70
11647;DHT22;5880;52.342;9.662;2023-06-04T01:43:03;13.50;35.80
11647;DHT22;5880;52.342;9.662;2023-06-04T01:45:29;13.50;35.80
11647;DHT22;5880;52.342;9.662;2023-06-04T01:47:56;13.50;36.10
11647;DHT22;5880;52.342;9.662;2023-06-04T01:50:22;13.50;36.10
11647;DHT22;5880;52.342;9.662;2023-06-04T01:52:48;13.40;35.90
11647;DHT22;5880;52.342;9.662;2023-06-04T01:55:15;13.40;36.00
11647;DHT22;5880;52.342;9.662;2023-06-04T01:57:44;13.40;36.20
11647;DHT22;5880;52.342;9.662;2023-06-04T02:00:11;13.40;36.20
11647;DHT22;5880;52.342;9.662;2023-06-04T02:02:37;13.40;36.30
11647;DHT22;5880;52.342;9.662;2023-06-04T02:05:04;13.40;36.30
11647;DHT22;5880;52.342;9.662;2023-06-04T02:07:34;13.30;36.50
11647;DHT22;5880;52.342;9.662;2023-06-04T02:10:04;13.30;36.40
11647;DHT22;5880;52.342;9.662;2023-06-04T02:12:38;13.30;36.40
11647;DHT22;5880;52.342;9.662;2023-06-04T02:15:06;13.30;37.00
11647;DHT22;5880;52.342;9.662;2023-06-04T02:17:33;13.20;36.60
11647;DHT22;5880;52.342;9.662;2023-06-04T02:20:02;13.30;36.70
11647;DHT22;5880;52.342;9.662;2023-06-04T02:22:28;13.30;36.70
11647;DHT22;5880;52.342;9.662;2023-06-04T02:24:54;13.30;36.70
11647;DHT22;5880;52.342;9.662;2023-06-04T02:27:20;13.20;36.70
11647;DHT22;5880;52.342;9.662;2023-06-04T02:29:46;13.20;36.80
11647;DHT22;5880;52.342;9.662;2023-06-04T02:32:11;13.20;36.80
11647;DHT22;5880;52.342;9.662;2023-06-04T02:34:37;13.10;36.90
11647;DHT22;5880;52.342;9.662;2023-06-04T02:37:03;13.10;37.00
11647;DHT22;5880;52.342;9.662;2023-06-04T02:39:30;13.10;37.10
11647;DHT22;5880;52.342;9.662;2023-06-04T02:41:56;13.10;37.70
11647;DHT22;5880;52.342;9.662;2023-06-04T02:44:21;13.00;37.20
11647;DHT22;5880;52.342;9.662;2023-06-04T02:46:47;13.00;37.40
11647;DHT22;5880;52.342;9.662;2023-06-04T02:49:13;13.00;37.30
11647;DHT22;5880;52.342;9.662;2023-06-04T02:51:45;13.00;37.30
11647;DHT22;5880;52.342;9.662;2023-06-04T02:54:11;13.00;37.70
11647;DHT22;5880;52.342;9.662;2023-06-04T02:56:37;13.00;37.40
11647;DHT22;5880;52.342;9.662;2023-06-04T02:59:04;13.00;37.40
11647;DHT22;5880;52.342;9.662;2023-06-04T03:01:30;12.90;37.50
11647;DHT22;5880;52.342;9.662;2023-06-04T03:03:56;12.90;37.50
11647;DHT22;5880;52.342;9.662;2023-06-04T03:06:26;12.90;37.60
11647;DHT22;5880;52.342;9.662;2023-06-04T03:08:52;12.90;37.50
11647;DHT22;5880;52.342;9.662;2023-06-04T03:11:18;12.90;37.50
11647;DHT22;5880;52.342;9.662;2023-06-04T03:13:47;12.90;37.60
11647;DHT22;5880;52.342;9.662;2023-06-04T03:16:14;12.90;37.70
11647;DHT22;5880;52.342;9.662;2023-06-04T03:18:41;12.90;37.70
11647;DHT22;5880;52.342;9.662;2023-06-04T03:21:08;12.80;37.60
11647;DHT22;5880;52.342;9.662;2023-06-04T03:23:35;12.80;37.70
11647;DHT22;5880;52.342;9.662;2023-06-04T03:26:01;12.80;37.70
11647;DHT22;5880;52.342;9.662;2023-06-04T03:28:28;12.80;37.80
11647;DHT22;5880;52.342;9.662;2023-06-04T03:30:54;12.80;37.80
11647;DHT22;5880;52.342;9.662;2023-06-04T03:33:20;12.80;38.00
11647;DHT22;5880;52.342;9.662;2023-06-04T03:35:46;12.80;38.00
11647;DHT22;5880;52.342;9.662;2023-06-04T03:38:13;12.80;38.10
11647;DHT22;5880;52.342;9.662;2023-06-04T03:40:40;12.80;38.20
11647;DHT22;5880;52.342;9.662;2023-06-04T03:43:06;12.80;38.30
11647;DHT22;5880;52.342;9.662;2023-06-04T03:45:32;12.80;38.20
11647;DHT22;5880;52.342;9.662;2023-06-04T03:47:58;12.80;38.40
11647;DHT22;5880;52.342;9.662;2023-06-04T03:50:23;12.80;38.50
11647;DHT22;5880;52.342;9.662;2023-06-04T03:52:49;12.90;38.50
11647;DHT22;5880;52.342;9.662;2023-06-04T03:55:15;12.90;38.60
11647;DHT22;5880;52.342;9.662;2023-06-04T03:57:41;13.00;38.80
11647;DHT22;5880;52.342;9.662;2023-06-04T04:00:08;13.00;38.80
11647;DHT22;5880;52.342;9.662;2023-06-04T04:02:37;13.00;38.80
11647;DHT22;5880;52.342;9.662;2023-06-04T04:05:03;13.10;38.70
11647;DHT22;5880;52.342;9.662;2023-06-04T04:07:29;13.10;38.90
11647;DHT22;5880;52.342;9.662;2023-06-04T04:09:55;13.20;38.90
11647;DHT22;5880;52.342;9.662;2023-06-04T04:12:21;13.20;38.80
11647;DHT22;5880;52.342;9.662;2023-06-04T04:14:47;13.30;39.00
11647;DHT22;5880;52.342;9.662;2023-06-04T04:17:16;13.30;39.00
11647;DHT22;5880;52.342;9.662;2023-06-04T04:19:42;13.40;39.10
11647;DHT22;5880;52.342;9.662;2023-06-04T04:22:10;13.40;39.10
11647;DHT22;5880;52.342;9.662;2023-06-04T04:24:36;13.50;39.80
11647;DHT22;5880;52.342;9.662;2023-06-04T04:27:03;13.50;39.60
11647;DHT22;5880;52.342;9.662;2023-06-04T04:29:30;13.60;39.60
11647;DHT22;5880;52.342;9.662;2023-06-04T04:32:00;13.60;39.70
11647;DHT22;5880;52.342;9.662;2023-06-04T04:34:34;13.70;39.80
11647;DHT22;5880;52.342;9.662;2023-06-04T04:37:03;13.80;39.70
11647;DHT22;5880;52.342;9.662;2023-06-04T04:39:28;13.80;39.80
11647;DHT22;5880;52.342;9.662;2023-06-04T04:41:55;13.90;40.00
11647;DHT22;5880;52.342;9.662;2023-06-04T04:44:20;13.90;40.30
11647;DHT22;5880;52.342;9.662;2023-06-04T04:46:48;13.90;40.20
11647;DHT22;5880;52.342;9.662;2023-06-04T04:49:14;14.00;40.50
11647;DHT22;5880;52.342;9.662;2023-06-04T04:51:39;14.10;40.40
11647;DHT22;5880;52.342;9.662;2023-06-04T04:54:05;14.20;40.40
11647;DHT22;5880;52.342;9.662;2023-06-04T04:56:33;14.20;41.30
11647;DHT22;5880;52.342;9.662;2023-06-04T04:59:02;14.20;40.90
11647;DHT22;5880;52.342;9.662;2023-06-04T05:01:28;14.20;40.60
11647;DHT22;5880;52.342;9.662;2023-06-04T05:03:53;14.40;41.00
11647;DHT22;5880;52.342;9.662;2023-06-04T05:06:19;14.40;41.10
11647;DHT22;5880;52.342;9.662;2023-06-04T05:08:45;14.50;41.20
11647;DHT22;5880;52.342;9.662;2023-06-04T05:11:11;14.60;41.10
11647;DHT22;5880;52.342;9.662;2023-06-04T05:13:36;14.80;41.00
11647;DHT22;5880;52.342;9.662;2023-06-04T05:16:02;14.90;41.10
11647;DHT22;5880;52.342;9.662;2023-06-04T05:18:32;15.10;41.10
11647;DHT22;5880;52.342;9.662;2023-06-04T05:21:06;15.20;40.70
11647;DHT22;5880;52.342;9.662;2023-06-04T05:23:32;15.40;40.50
11647;DHT22;5880;52.342;9.662;2023-06-04T05:26:00;15.60;40.70
11647;DHT22;5880;52.342;9.662;2023-06-04T05:28:27;15.70;40.50
11647;DHT22;5880;52.342;9.662;2023-06-04T05:30:53;15.90;40.30
11647;DHT22;5880;52.342;9.662;2023-06-04T05:33:28;16.10;40.30
11647;DHT22;5880;52.342;9.662;2023-06-04T05:35:56;16.30;40.70
11647;DHT22;5880;52.342;9.662;2023-06-04T05:38:23;16.40;40.40
11647;DHT22;5880;52.342;9.662;2023-06-04T05:40:51;16.30;40.10
11647;DHT22;5880;52.342;9.662;2023-06-04T05:43:18;16.90;40.40
11647;DHT22;5880;52.342;9.662;2023-06-04T05:45:44;17.10;40.30
11647;DHT22;5880;52.342;9.662;2023-06-04T05:48:10;17.40;40.60
11647;DHT22;5880;52.342;9.662;2023-06-04T05:50:36;17.80;40.60
11647;DHT22;5880;52.342;9.662;2023-06-04T05:53:01;18.20;40.70
11647;DHT22;5880;52.342;9.662;2023-06-04T05:55:27;18.60;40.30
11647;DHT22;5880;52.342;9.662;2023-06-04T05:57:54;19.00;39.90
11647;DHT22;5880;52.342;9.662;2023-06-04T06:00:20;19.40;39.80
11647;DHT22;5880;52.342;9.662;2023-06-04T06:02:49;19.90;39.30
11647;DHT22;5880;52.342;9.662;2023-06-04T06:05:17;20.20;38.40
11647;DHT22;5880;52.342;9.662;2023-06-04T06:07:44;20.40;38.30
11647;DHT22;5880;52.342;9.662;2023-06-04T06:10:10;20.70;38.30
11647;DHT22;5880;52.342;9.662;2023-06-04T06:12:36;20.90;38.80
11647;DHT22;5880;52.342;9.662;2023-06-04T06:15:02;21.20;39.10
11647;DHT22;5880;52.342;9.662;2023-06-04T06:17:27;21.60;39.70
11647;DHT22;5880;52.342;9.662;2023-06-04T06:19:54;22.10;40.40
11647;DHT22;5880;52.342;9.662;2023-06-04T06:22:20;22.70;40.30
11647;DHT22;5880;52.342;9.662;2023-06-04T06:24:46;23.20;40.00
11647;DHT22;5880;52.342;9.662;2023-06-04T06:27:14;23.90;39.20
11647;DHT22;5880;52.342;9.662;2023-06-04T06:29:41;24.60;38.70
11647;DHT22;5880;52.342;9.662;2023-06-04T06:32:08;25.20;37.50
11647;DHT22;5880;52.342;9.662;2023-06-04T06:34:34;25.80;36.60
11647;DHT22;5880;52.342;9.662;2023-06-04T06:36:59;26.40;36.40
11647;DHT22;5880;52.342;9.662;2023-06-04T06:39:25;26.90;35.50
11647;DHT22;5880;52.342;9.662;2023-06-04T06:41:51;27.50;35.10
11647;DHT22;5880;52.342;9.662;2023-06-04T06:44:17;28.00;34.60
11647;DHT22;5880;52.342;9.662;2023-06-04T06:46:42;28.40;33.50
11647;DHT22;5880;52.342;9.662;2023-06-04T06:49:08;28.80;32.70
11647;DHT22;5880;52.342;9.662;2023-06-04T06:51:34;29.20;32.80
11647;DHT22;5880;52.342;9.662;2023-06-04T06:53:59;29.70;31.40
11647;DHT22;5880;52.342;9.662;2023-06-04T06:56:25;30.00;31.20
11647;DHT22;5880;52.342;9.662;2023-06-04T06:58:51;30.50;30.50
11647;DHT22;5880;52.342;9.662;2023-06-04T07:01:17;30.70;29.40
11647;DHT22;5880;52.342;9.662;2023-06-04T07:03:43;31.00;28.80
11647;DHT22;5880;52.342;9.662;2023-06-04T07:06:08;31.10;28.30
11647;DHT22;5880;52.342;9.662;2023-06-04T07:08:34;31.20;28.00
11647;DHT22;5880;52.342;9.662;2023-06-04T07:11:01;31.30;27.70
11647;DHT22;5880;52.342;9.662;2023-06-04T07:13:28;31.50;27.20
11647;DHT22;5880;52.342;9.662;2023-06-04T07:15:57;31.70;26.50
11647;DHT22;5880;52.342;9.662;2023-06-04T07:18:24;31.60;25.50
11647;DHT22;5880;52.342;9.662;2023-06-04T07:20:49;31.50;24.90
11647;DHT22;5880;52.342;9.662;2023-06-04T07:23:18;31.40;24.30
11647;DHT22;5880;52.342;9.662;2023-06-04T07:25:43;31.10;24.20
11647;DHT22;5880;52.342;9.662;2023-06-04T07:28:09;30.90;23.90
11647;DHT22;5880;52.342;9.662;2023-06-04T07:30:35;30.80;24.20
11647;DHT22;5880;52.342;9.662;2023-06-04T07:33:02;30.80;24.10
11647;DHT22;5880;52.342;9.662;2023-06-04T07:35:27;30.60;24.00
11647;DHT22;5880;52.342;9.662;2023-06-04T07:37:53;30.50;23.80
11647;DHT22;5880;52.342;9.662;2023-06-04T07:40:19;30.40;23.60
11647;DHT22;5880;52.342;9.662;2023-06-04T07:42:45;30.30;23.50
11647;DHT22;5880;52.342;9.662;2023-06-04T07:45:15;30.10;23.40
11647;DHT22;5880;52.342;9.662;2023-06-04T07:47:41;29.80;23.00
11647;DHT22;5880;52.342;9.662;2023-06-04T07:50:08;29.50;22.80
11647;DHT22;5880;52.342;9.662;2023-06-04T07:52:34;29.20;22.50
11647;DHT22;5880;52.342;9.662;2023-06-04T07:55:00;28.90;22.30
11647;DHT22;5880;52.342;9.662;2023-06-04T07:57:26;28.60;22.80
11647;DHT22;5880;52.342;9.662;2023-06-04T07:59:52;28.30;22.80
11647;DHT22;5880;52.342;9.662;2023-06-04T08:02:18;28.00;22.80
11647;DHT22;5880;52.342;9.662;2023-06-04T08:04:44;27.70;23.30
11647;DHT22;5880;52.342;9.662;2023-06-04T08:07:11;27.40;23.10
11647;DHT22;5880;52.342;9.662;2023-06-04T08:09:37;27.20;23.30
11647;DHT22;5880;52.342;9.662;2023-06-04T08:12:03;27.00;23.60
11647;DHT22;5880;52.342;9.662;2023-06-04T08:14:28;26.80;23.40
11647;DHT22;5880;52.342;9.662;2023-06-04T08:16:54;26.60;23.20
11647;DHT22;5880;52.342;9.662;2023-06-04T08:19:20;26.40;23.20
11647;DHT22;5880;52.342;9.662;2023-06-04T08:21:46;26.20;23.70
11647;DHT22;5880;52.342;9.662;2023-06-04T08:24:12;26.00;24.30
11647;DHT22;5880;52.342;9.662;2023-06-04T08:26:38;25.90;24.00
11647;DHT22;5880;52.342;9.662;2023-06-04T08:29:04;25.80;23.80
11647;DHT22;5880;52.342;9.662;2023-06-04T08:31:31;25.70;24.20
11647;DHT22;5880;52.342;9.662;2023-06-04T08:33:57;25.60;24.20
11647;DHT22;5880;52.342;9.662;2023-06-04T08:36:23;25.70;24.10
11647;DHT22;5880;52.342;9.662;2023-06-04T08:38:48;25.60;24.00
11647;DHT22;5880;52.342;9.662;2023-06-04T08:43:58;25.60;24.40
11647;DHT22;5880;52.342;9.662;2023-06-04T08:46:27;25.60;23.90
11647;DHT22;5880;52.342;9.662;2023-06-04T08:48:56;25.50;23.90
11647;DHT22;5880;52.342;9.662;2023-06-04T08:51:27;25.50;24.10
11647;DHT22;5880;52.342;9.662;2023-06-04T08:53:54;25.40;23.80
11647;DHT22;5880;52.342;9.662;2023-06-04T08:56:22;25.30;23.70
11647;DHT22;5880;52.342;9.662;2023-06-04T08:58:48;25.20;23.30
11647;DHT22;5880;52.342;9.662;2023-06-04T09:01:15;25.10;23.70
11647;DHT22;5880;52.342;9.662;2023-06-04T09:03:41;25.10;23.60
11647;DHT22;5880;52.342;9.662;2023-06-04T09:06:08;25.00;23.80
11647;DHT22;5880;52.342;9.662;2023-06-04T09:08:37;25.00;23.40
11647;DHT22;5880;52.342;9.662;2023-06-04T09:11:10;25.00;23.10
11647;DHT22;5880;52.342;9.662;2023-06-04T09:13:40;25.00;23.40
11647;DHT22;5880;52.342;9.662;2023-06-04T09:16:08;24.90;23.70
11647;DHT22;5880;52.342;9.662;2023-06-04T09:18:34;24.90;23.50
11647;DHT22;5880;52.342;9.662;2023-06-04T09:21:04;24.90;23.50
11647;DHT22;5880;52.342;9.662;2023-06-04T09:26:09;24.80;23.00
11647;DHT22;5880;52.342;9.662;2023-06-04T09:28:39;24.80;23.30
11647;DHT22;5880;52.342;9.662;2023-06-04T09:31:09;25.00;23.50
11647;DHT22;5880;52.342;9.662;2023-06-04T09:33:46;24.80;22.90
11647;DHT22;5880;52.342;9.662;2023-06-04T09:36:13;24.70;22.60
11647;DHT22;5880;52.342;9.662;2023-06-04T09:38:39;24.70;23.00
11647;DHT22;5880;52.342;9.662;2023-06-04T09:41:17;24.60;23.20
11647;DHT22;5880;52.342;9.662;2023-06-04T09:43:46;24.60;23.40
11647;DHT22;5880;52.342;9.662;2023-06-04T09:46:15;24.70;23.80
11647;DHT22;5880;52.342;9.662;2023-06-04T09:48:42;24.60;23.60
11647;DHT22;5880;52.342;9.662;2023-06-04T09:51:14;24.60;23.00
11647;DHT22;5880;52.342;9.662;2023-06-04T09:53:41;24.60;22.20
11647;DHT22;5880;52.342;9.662;2023-06-04T09:56:07;24.60;22.40
11647;DHT22;5880;52.342;9.662;2023-06-04T09:58:34;24.60;22.30
11647;DHT22;5880;52.342;9.662;2023-06-04T10:01:03;24.50;22.20
11647;DHT22;5880;52.342;9.662;2023-06-04T10:03:35;24.40;21.80
11647;DHT22;5880;52.342;9.662;2023-06-04T10:06:03;24.40;22.40
11647;DHT22;5880;52.342;9.662;2023-06-04T10:08:31;24.40;22.10
11647;DHT22;5880;52.342;9.662;2023-06-04T10:11:01;24.50;22.70
11647;DHT22;5880;52.342;9.662;2023-06-04T10:13:37;24.40;22.30
11647;DHT22;5880;52.342;9.662;2023-06-04T10:16:07;24.30;21.10
11647;DHT22;5880;52.342;9.662;2023-06-04T10:18:33;24.30;21.70
11647;DHT22;5880;52.342;9.662;2023-06-04T10:21:00;24.30;22.40
11647;DHT22;5880;52.342;9.662;2023-06-04T10:23:27;24.20;22.70
11647;DHT22;5880;52.342;9.662;2023-06-04T10:25:54;24.20;22.90
11647;DHT22;5880;52.342;9.662;2023-06-04T10:28:22;24.20;22.60
11647;DHT22;5880;52.342;9.662;2023-06-04T10:30:49;23.60;22.70
11647;DHT22;5880;52.342;9.662;2023-06-04T10:33:20;24.20;23.10
11647;DHT22;5880;52.342;9.662;2023-06-04T10:35:53;24.20;22.70
11647;DHT22;5880;52.342;9.662;2023-06-04T10:38:21;24.20;22.60
11647;DHT22;5880;52.342;9.662;2023-06-04T10:40:47;24.20;22.70
11647;DHT22;5880;52.342;9.662;2023-06-04T10:43:14;24.30;22.70
11647;DHT22;5880;52.342;9.662;2023-06-04T10:45:44;24.30;22.70
11647;DHT22;5880;52.342;9.662;2023-06-04T10:48:12;24.40;22.40
11647;DHT22;5880;52.342;9.662;2023-06-04T10:50:49;24.30;22.60
11647;DHT22;5880;52.342;9.662;2023-06-04T10:53:17;24.40;23.10
11647;DHT22;5880;52.342;9.662;2023-06-04T10:55:46;24.40;22.80
11647;DHT22;5880;52.342;9.662;2023-06-04T10:58:13;24.50;22.70
11647;DHT22;5880;52.342;9.662;2023-06-04T11:00:43;24.50;22.60
11647;DHT22;5880;52.342;9.662;2023-06-04T11:03:11;24.50;22.50
11647;DHT22;5880;52.342;9.662;2023-06-04T11:05:43;24.60;22.50
11647;DHT22;5880;52.342;9.662;2023-06-04T11:08:11;24.60;22.20
11647;DHT22;5880;52.342;9.662;2023-06-04T11:10:41;25.10;22.10
11647;DHT22;5880;52.342;9.662;2023-06-04T11:13:07;24.60;22.60
11647;DHT22;5880;52.342;9.662;2023-06-04T11:18:18;24.70;22.40
11647;DHT22;5880;52.342;9.662;2023-06-04T11:20:57;24.60;22.60
11647;DHT22;5880;52.342;9.662;2023-06-04T11:23:24;24.70;22.30
11647;DHT22;5880;52.342;9.662;2023-06-04T11:25:52;24.60;21.90
11647;DHT22;5880;52.342;9.662;2023-06-04T11:28:19;24.70;21.60
11647;DHT22;5880;52.342;9.662;2023-06-04T11:30:59;24.70;21.40
11647;DHT22;5880;52.342;9.662;2023-06-04T11:33:46;24.70;21.90
11647;DHT22;5880;52.342;9.662;2023-06-04T11:36:27;24.70;22.40
11647;DHT22;5880;52.342;9.662;2023-06-04T11:38:57;24.70;21.90
11647;DHT22;5880;52.342;9.662;2023-06-04T11:41:27;24.70;22.00
11647;DHT22;5880;52.342;9.662;2023-06-04T11:43:56;24.70;22.30
11647;DHT22;5880;52.342;9.662;2023-06-04T11:46:23;24.70;22.30
11647;DHT22;5880;52.342;9.662;2023-06-04T11:48:51;24.80;22.00
11647;DHT22;5880;52.342;9.662;2023-06-04T11:51:22;24.80;21.80
11647;DHT22;5880;52.342;9.662;2023-06-04T11:53:47;24.80;22.10
11647;DHT22;5880;52.342;9.662;2023-06-04T11:56:15;24.80;22.50
11647;DHT22;5880;52.342;9.662;2023-06-04T11:58:42;24.90;22.40
11647;DHT22;5880;52.342;9.662;2023-06-04T12:01:08;24.80;22.30
11647;DHT22;5880;52.342;9.662;2023-06-04T12:03:39;24.90;22.40
11647;DHT22;5880;52.342;9.662;2023-06-04T12:06:13;24.90;22.20
11647;DHT22;5880;52.342;9.662;2023-06-04T12:08:49;24.90;22.00
11647;DHT22;5880;52.342;9.662;2023-06-04T12:11:28;24.90;21.90
11647;DHT22;5880;52.342;9.662;2023-06-04T12:14:03;24.90;22.00
11647;DHT22;5880;52.342;9.662;2023-06-04T12:16:31;24.90;22.00
11647;DHT22;5880;52.342;9.662;2023-06-04T12:19:11;24.90;22.40
11647;DHT22;5880;52.342;9.662;2023-06-04T12:21:38;24.90;21.70
11647;DHT22;5880;52.342;9.662;2023-06-04T12:24:14;24.90;21.90
11647;DHT22;5880;52.342;9.662;2023-06-04T12:26:41;24.90;21.50
11647;DHT22;5880;52.342;9.662;2023-06-04T12:29:14;24.90;21.80
11647;DHT22;5880;52.342;9.662;2023-06-04T12:31:41;25.00;21.30
11647;DHT22;5880;52.342;9.662;2023-06-04T12:34:08;24.90;21.40
11647;DHT22;5880;52.342;9.662;2023-06-04T12:36:34;25.00;21.30
11647;DHT22;5880;52.342;9.662;2023-06-04T12:39:00;25.00;20.20
11647;DHT22;5880;52.342;9.662;2023-06-04T12:41:28;25.00;20.20
11647;DHT22;5880;52.342;9.662;2023-06-04T12:43:55;25.00;20.40
11647;DHT22;5880;52.342;9.662;2023-06-04T12:46:22;25.00;20.20
11647;DHT22;5880;52.342;9.662;2023-06-04T12:48:50;25.00;20.50
11647;DHT22;5880;52.342;9.662;2023-06-04T12:51:16;25.00;20.30
11647;DHT22;5880;52.342;9.662;2023-06-04T12:53:43;25.00;20.20
11647;DHT22;5880;52.342;9.662;2023-06-04T12:56:09;25.00;20.60
11647;DHT22;5880;52.342;9.662;2023-06-04T12:58:36;25.00;20.50
11647;DHT22;5880;52.342;9.662;2023-06-04T13:01:02;25.00;20.80
11647;DHT22;5880;52.342;9.662;2023-06-04T13:03:30;25.00;20.40
11647;DHT22;5880;52.342;9.662;2023-06-04T13:05:57;25.00;20.50
11647;DHT22;5880;52.342;9.662;2023-06-04T13:08:23;25.00;20.50
11647;DHT22;5880;52.342;9.662;2023-06-04T13:10:50;25.00;20.60
11647;DHT22;5880;52.342;9.662;2023-06-04T13:13:17;25.00;20.40
11647;DHT22;5880;52.342;9.662;2023-06-04T13:15:44;25.00;20.60
11647;DHT22;5880;52.342;9.662;2023-06-04T13:18:10;25.00;20.70
11647;DHT22;5880;52.342;9.662;2023-06-04T13:20:37;25.00;20.60
11647;DHT22;5880;52.342;9.662;2023-06-04T13:23:05;25.00;20.00
11647;DHT22;5880;52.342;9.662;2023-06-04T13:25:31;25.00;19.70
11647;DHT22;5880;52.342;9.662;2023-06-04T13:28:00;25.10;19.90
11647;DHT22;5880;52.342;9.662;2023-06-04T13:30:26;25.10;20.00
11647;DHT22;5880;52.342;9.662;2023-06-04T13:32:53;25.10;20.00
11647;DHT22;5880;52.342;9.662;2023-06-04T13:35:19;25.20;20.70
11647;DHT22;5880;52.342;9.662;2023-06-04T13:37:45;25.20;20.80
11647;DHT22;5880;52.342;9.662;2023-06-04T13:40:11;25.30;20.40
11647;DHT22;5880;52.342;9.662;2023-06-04T13:42:37;25.30;20.30
11647;DHT22;5880;52.342;9.662;2023-06-04T13:45:03;25.40;20.10
11647;DHT22;5880;52.342;9.662;2023-06-04T13:47:28;25.40;19.90
11647;DHT22;5880;52.342;9.662;2023-06-04T13:49:54;25.40;20.00
11647;DHT22;5880;52.342;9.662;2023-06-04T13:52:20;25.50;20.30
11647;DHT22;5880;52.342;9.662;2023-06-04T13:54:45;25.50;20.20
11647;DHT22;5880;52.342;9.662;2023-06-04T13:57:11;25.50;20.30
11647;DHT22;5880;52.342;9.662;2023-06-04T13:59:37;25.50;20.00
11647;DHT22;5880;52.342;9.662;2023-06-04T14:02:04;25.60;19.50
11647;DHT22;5880;52.342;9.662;2023-06-04T14:04:30;25.60;19.60
11647;DHT22;5880;52.342;9.662;2023-06-04T14:06:56;25.60;20.00
11647;DHT22;5880;52.342;9.662;2023-06-04T14:09:22;25.60;20.20
11647;DHT22;5880;52.342;9.662;2023-06-04T14:11:48;25.60;20.10
11647;DHT22;5880;52.342;9.662;2023-06-04T14:14:16;25.60;20.30
11647;DHT22;5880;52.342;9.662;2023-06-04T14:16:45;25.60;20.50
11647;DHT22;5880;52.342;9.662;2023-06-04T14:19:12;25.60;20.50
11647;DHT22;5880;52.342;9.662;2023-06-04T14:21:40;25.70;20.60
11647;DHT22;5880;52.342;9.662;2023-06-04T14:24:06;25.60;20.40
11647;DHT22;5880;52.342;9.662;2023-06-04T14:26:32;25.70;20.30
11647;DHT22;5880;52.342;9.662;2023-06-04T14:28:58;25.80;20.40
11647;DHT22;5880;52.342;9.662;2023-06-04T14:31:24;25.80;19.50
11647;DHT22;5880;52.342;9.662;2023-06-04T14:33:50;25.80;20.00
11647;DHT22;5880;52.342;9.662;2023-06-04T14:36:16;26.10;20.40
11647;DHT22;5880;52.342;9.662;2023-06-04T14:38:41;25.80;19.70
11647;DHT22;5880;52.342;9.662;2023-06-04T14:41:07;25.80;19.80
11647;DHT22;5880;52.342;9.662;2023-06-04T14:43:33;25.90;19.60
11647;DHT22;5880;52.342;9.662;2023-06-04T14:45:58;25.90;19.90
11647;DHT22;5880;52.342;9.662;2023-06-04T14:48:24;25.90;20.00
11647;DHT22;5880;52.342;9.662;2023-06-04T14:50:50;25.90;19.80
11647;DHT22;5880;52.342;9.662;2023-06-04T14:53:19;25.90;19.70
11647;DHT22;5880;52.342;9.662;2023-06-04T14:55:45;25.90;20.00
11647;DHT22;5880;52.342;9.662;2023-06-04T14:58:11;25.90;20.00
11647;DHT22;5880;52.342;9.662;2023-06-04T15:00:37;25.90;19.80
11647;DHT22;5880;52.342;9.662;2023-06-04T15:03:03;25.90;20.00
11647;DHT22;5880;52.342;9.662;2023-06-04T15:05:29;25.90;20.40
11647;DHT22;5880;52.342;9.662;2023-06-04T15:07:56;25.90;19.90
11647;DHT22;5880;52.342;9.662;2023-06-04T15:10:22;25.90;20.10
11647;DHT22;5880;52.342;9.662;2023-06-04T15:12:47;25.90;20.00
11647;DHT22;5880;52.342;9.662;2023-06-04T15:15:13;25.80;19.90
11647;DHT22;5880;52.342;9.662;2023-06-04T15:17:38;25.80;20.00
11647;DHT22;5880;52.342;9.662;2023-06-04T15:20:04;25.90;20.00
11647;DHT22;5880;52.342;9.662;2023-06-04T15:22:31;25.80;20.10
11647;DHT22;5880;52.342;9.662;2023-06-04T15:24:56;25.80;20.00
11647;DHT22;5880;52.342;9.662;2023-06-04T15:27:23;25.90;19.90
11647;DHT22;5880;52.342;9.662;2023-06-04T15:29:49;25.70;20.00
11647;DHT22;5880;52.342;9.662;2023-06-04T15:32:15;25.70;20.00
11647;DHT22;5880;52.342;9.662;2023-06-04T15:34:41;25.60;20.00
11647;DHT22;5880;52.342;9.662;2023-06-04T15:37:07;25.60;19.90
11647;DHT22;5880;52.342;9.662;2023-06-04T15:39:33;25.60;19.80
11647;DHT22;5880;52.342;9.662;2023-06-04T15:41:58;25.50;19.80
11647;DHT22;5880;52.342;9.662;2023-06-04T15:44:24;25.50;19.70
11647;DHT22;5880;52.342;9.662;2023-06-04T15:46:50;25.50;19.70
11647;DHT22;5880;52.342;9.662;2023-06-04T15:49:16;25.50;19.70
11647;DHT22;5880;52.342;9.662;2023-06-04T15:51:43;25.50;19.60
11647;DHT22;5880;52.342;9.662;2023-06-04T15:54:09;25.50;19.60
11647;DHT22;5880;52.342;9.662;2023-06-04T15:56:35;25.50;19.50